sensor_id;sensor_type;location;lat;lon;timestamp;pressure;altitude;pressure_sealevel;temperature;humidity
56241;BME280;42155;53.096;23.226;2023-05-24T00:01:43;99808.50;;;13.65;66.59
56241;BME280;42155;53.096;23.226;2023-05-24T00:03:43;99818.03;;;13.68;66.90
56241;BME280;42155;53.096;23.226;2023-05-24T00:05:43;99807.97;;;13.62;67.15
56241;BME280;42155;53.096;23.226;2023-05-24T00:07:44;99808.00;;;13.52;66.92
56241;BME280;42155;53.096;23.226;2023-05-24T00:09:44;99794.88;;;13.41;67.10
56241;BME280;42155;53.096;23.226;2023-05-24T00:11:44;99706.09;;;12.84;66.66
56241;BME280;42155;53.096;23.226;2023-05-24T00:13:45;99812.22;;;13.45;66.79
56241;BME280;42155;53.096;23.226;2023-05-24T00:15:46;99786.75;;;13.33;66.98
56241;BME280;42155;53.096;23.226;2023-05-24T00:17:46;99810.72;;;13.42;67.14
56241;BME280;42155;53.096;23.226;2023-05-24T00:19:46;99808.19;;;13.41;67.37
56241;BME280;42155;53.096;23.226;2023-05-24T00:21:47;99804.38;;;13.43;67.20
56241;BME280;42155;53.096;23.226;2023-05-24T00:23:48;99796.53;;;13.42;66.73
56241;BME280;42155;53.096;23.226;2023-05-24T00:25:48;99799.31;;;13.50;66.60
56241;BME280;42155;53.096;23.226;2023-05-24T00:27:48;99808.28;;;13.49;66.92
56241;BME280;42155;53.096;23.226;2023-05-24T00:29:49;99796.22;;;13.45;67.18
56241;BME280;42155;53.096;23.226;2023-05-24T00:31:49;99808.59;;;13.46;67.24
56241;BME280;42155;53.096;23.226;2023-05-24T00:33:49;99803.81;;;13.40;67.07
56241;BME280;42155;53.096;23.226;2023-05-24T00:35:50;99802.16;;;13.39;67.12
56241;BME280;42155;53.096;23.226;2023-05-24T00:37:50;99807.78;;;13.36;66.98
56241;BME280;42155;53.096;23.226;2023-05-24T00:39:50;99806.09;;;13.35;67.03
56241;BME280;42155;53.096;23.226;2023-05-24T00:41:51;99811.41;;;13.35;66.92
56241;BME280;42155;53.096;23.226;2023-05-24T00:43:51;99778.06;;;13.11;67.47
56241;BME280;42155;53.096;23.226;2023-05-24T00:46:14;99810.63;;;13.24;67.18
56241;BME280;42155;53.096;23.226;2023-05-24T00:48:15;99810.84;;;13.21;67.28
56241;BME280;42155;53.096;23.226;2023-05-24T00:50:15;99804.31;;;13.06;67.52
56241;BME280;42155;53.096;23.226;2023-05-24T00:52:16;99811.72;;;13.12;68.11
56241;BME280;42155;53.096;23.226;2023-05-24T00:54:17;99820.69;;;13.11;68.14
56241;BME280;42155;53.096;23.226;2023-05-24T00:56:17;99796.91;;;13.00;68.08
56241;BME280;42155;53.096;23.226;2023-05-24T00:58:17;99808.66;;;13.07;67.83
56241;BME280;42155;53.096;23.226;2023-05-24T01:00:18;99821.00;;;13.08;67.97
56241;BME280;42155;53.096;23.226;2023-05-24T01:02:18;99816.63;;;13.07;68.17
56241;BME280;42155;53.096;23.226;2023-05-24T01:04:19;99817.91;;;13.03;67.94
56241;BME280;42155;53.096;23.226;2023-05-24T01:06:19;99806.31;;;12.94;68.40
56241;BME280;42155;53.096;23.226;2023-05-24T01:15:21;99823.00;;;12.77;68.54
56241;BME280;42155;53.096;23.226;2023-05-24T01:17:50;99812.06;;;12.70;69.28
56241;BME280;42155;53.096;23.226;2023-05-24T01:20:02;99817.94;;;12.64;68.62
56241;BME280;42155;53.096;23.226;2023-05-24T01:24:24;99809.97;;;12.55;69.59
56241;BME280;42155;53.096;23.226;2023-05-24T01:28:51;99812.63;;;12.45;69.65
56241;BME280;42155;53.096;23.226;2023-05-24T01:30:54;99814.88;;;12.40;69.73
56241;BME280;42155;53.096;23.226;2023-05-24T01:32:55;99810.06;;;12.34;69.70
56241;BME280;42155;53.096;23.226;2023-05-24T01:34:55;99798.88;;;12.20;69.95
56241;BME280;42155;53.096;23.226;2023-05-24T01:36:56;99795.22;;;12.12;69.91
56241;BME280;42155;53.096;23.226;2023-05-24T01:38:56;99806.72;;;12.22;69.86
56241;BME280;42155;53.096;23.226;2023-05-24T01:41:01;99802.06;;;12.14;69.94
56241;BME280;42155;53.096;23.226;2023-05-24T01:45:10;99805.84;;;12.12;70.70
56241;BME280;42155;53.096;23.226;2023-05-24T01:49:39;99812.84;;;12.03;70.72
56241;BME280;42155;53.096;23.226;2023-05-24T01:51:58;99818.16;;;12.03;70.31
56241;BME280;42155;53.096;23.226;2023-05-24T01:54:01;99799.38;;;11.95;70.37
56241;BME280;42155;53.096;23.226;2023-05-24T01:56:05;99800.06;;;11.97;70.93
56241;BME280;42155;53.096;23.226;2023-05-24T01:58:06;99813.50;;;11.95;70.94
56241;BME280;42155;53.096;23.226;2023-05-24T02:00:09;99806.66;;;11.93;71.14
56241;BME280;42155;53.096;23.226;2023-05-24T02:02:10;99774.50;;;11.65;71.14
56241;BME280;42155;53.096;23.226;2023-05-24T02:04:11;99813.06;;;11.90;71.26
56241;BME280;42155;53.096;23.226;2023-05-24T02:06:11;99807.19;;;11.87;71.40
56241;BME280;42155;53.096;23.226;2023-05-24T02:08:12;99817.81;;;11.87;71.24
56241;BME280;42155;53.096;23.226;2023-05-24T02:10:12;99817.81;;;11.87;71.88
56241;BME280;42155;53.096;23.226;2023-05-24T02:12:12;99808.16;;;11.86;72.04
56241;BME280;42155;53.096;23.226;2023-05-24T02:14:13;99814.47;;;11.85;71.88
56241;BME280;42155;53.096;23.226;2023-05-24T02:16:13;99816.28;;;11.84;72.10
56241;BME280;42155;53.096;23.226;2023-05-24T02:18:14;99819.78;;;11.85;71.58
56241;BME280;42155;53.096;23.226;2023-05-24T02:20:14;99819.78;;;11.85;71.46
56241;BME280;42155;53.096;23.226;2023-05-24T02:22:14;99827.63;;;11.86;72.16
56241;BME280;42155;53.096;23.226;2023-05-24T02:24:15;99823.13;;;11.87;71.92
56241;BME280;42155;53.096;23.226;2023-05-24T02:26:15;99827.50;;;11.88;72.08
56241;BME280;42155;53.096;23.226;2023-05-24T02:28:15;99824.69;;;11.89;71.59
56241;BME280;42155;53.096;23.226;2023-05-24T02:30:16;99816.56;;;11.91;71.58
56241;BME280;42155;53.096;23.226;2023-05-24T02:32:17;99811.00;;;11.94;72.21
56241;BME280;42155;53.096;23.226;2023-05-24T02:34:17;99825.72;;;11.98;71.95
56241;BME280;42155;53.096;23.226;2023-05-24T02:36:17;99824.47;;;12.02;71.49
56241;BME280;42155;53.096;23.226;2023-05-24T02:38:17;99802.03;;;11.95;71.88
56241;BME280;42155;53.096;23.226;2023-05-24T02:40:18;99823.50;;;12.13;71.65
56241;BME280;42155;53.096;23.226;2023-05-24T02:42:18;99821.41;;;12.16;71.46
56241;BME280;42155;53.096;23.226;2023-05-24T02:44:18;99824.34;;;12.23;70.88
56241;BME280;42155;53.096;23.226;2023-05-24T02:46:19;99826.59;;;12.28;71.44
56241;BME280;42155;53.096;23.226;2023-05-24T02:48:19;99817.38;;;12.32;71.55
56241;BME280;42155;53.096;23.226;2023-05-24T02:50:19;99818.38;;;12.40;71.47
56241;BME280;42155;53.096;23.226;2023-05-24T02:52:20;99809.53;;;12.40;71.59
56241;BME280;42155;53.096;23.226;2023-05-24T02:54:20;99827.03;;;12.52;71.54
56241;BME280;42155;53.096;23.226;2023-05-24T02:56:21;99828.31;;;12.58;71.66
56241;BME280;42155;53.096;23.226;2023-05-24T02:58:21;99828.88;;;12.61;71.48
56241;BME280;42155;53.096;23.226;2023-05-24T03:00:22;99830.00;;;12.68;70.65
56241;BME280;42155;53.096;23.226;2023-05-24T03:02:22;99829.59;;;12.73;70.97
56241;BME280;42155;53.096;23.226;2023-05-24T03:04:23;99824.66;;;12.78;71.16
56241;BME280;42155;53.096;23.226;2023-05-24T03:06:23;99835.59;;;12.85;70.49
56241;BME280;42155;53.096;23.226;2023-05-24T03:08:23;99830.81;;;12.88;70.73
56241;BME280;42155;53.096;23.226;2023-05-24T03:10:24;99828.88;;;12.90;70.17
56241;BME280;42155;53.096;23.226;2023-05-24T03:12:24;99844.00;;;12.99;70.83
56241;BME280;42155;53.096;23.226;2023-05-24T03:14:24;99843.44;;;13.06;70.69
56241;BME280;42155;53.096;23.226;2023-05-24T03:16:25;99834.03;;;13.11;70.43
56241;BME280;42155;53.096;23.226;2023-05-24T03:18:25;99822.38;;;13.12;70.50
56241;BME280;42155;53.096;23.226;2023-05-24T03:20:25;99842.31;;;13.28;70.31
56241;BME280;42155;53.096;23.226;2023-05-24T03:22:26;99844.25;;;13.35;70.47
56241;BME280;42155;53.096;23.226;2023-05-24T03:24:26;99847.03;;;13.43;70.43
56241;BME280;42155;53.096;23.226;2023-05-24T03:26:26;99843.94;;;13.48;69.85
56241;BME280;42155;53.096;23.226;2023-05-24T03:28:26;99840.41;;;13.57;70.29
56241;BME280;42155;53.096;23.226;2023-05-24T03:30:27;99855.38;;;13.68;70.46
56241;BME280;42155;53.096;23.226;2023-05-24T03:32:28;99848.31;;;13.76;70.48
56241;BME280;42155;53.096;23.226;2023-05-24T03:34:28;99842.09;;;13.86;70.10
56241;BME280;42155;53.096;23.226;2023-05-24T03:36:28;99841.22;;;13.95;70.37
56241;BME280;42155;53.096;23.226;2023-05-24T03:38:29;99836.69;;;14.05;69.58
56241;BME280;42155;53.096;23.226;2023-05-24T03:40:29;99837.47;;;14.15;69.68
56241;BME280;42155;53.096;23.226;2023-05-24T03:42:29;99843.31;;;14.29;69.00
56241;BME280;42155;53.096;23.226;2023-05-24T03:44:30;99841.09;;;14.42;69.08
56241;BME280;42155;53.096;23.226;2023-05-24T03:46:30;99841.97;;;14.60;68.74
56241;BME280;42155;53.096;23.226;2023-05-24T03:48:32;99846.84;;;14.83;68.85
56241;BME280;42155;53.096;23.226;2023-05-24T03:50:32;99856.06;;;15.06;67.92
56241;BME280;42155;53.096;23.226;2023-05-24T03:52:32;99851.28;;;15.36;67.11
56241;BME280;42155;53.096;23.226;2023-05-24T03:54:33;99848.16;;;15.66;67.07
56241;BME280;42155;53.096;23.226;2023-05-24T03:56:33;99844.66;;;16.08;66.03
56241;BME280;42155;53.096;23.226;2023-05-24T03:58:33;99838.66;;;17.14;64.49
56241;BME280;42155;53.096;23.226;2023-05-24T04:00:33;99834.28;;;18.63;60.85
56241;BME280;42155;53.096;23.226;2023-05-24T04:02:34;99833.56;;;19.68;57.83
56241;BME280;42155;53.096;23.226;2023-05-24T04:04:34;99836.63;;;20.09;56.25
56241;BME280;42155;53.096;23.226;2023-05-24T04:06:35;99827.50;;;20.10;56.28
56241;BME280;42155;53.096;23.226;2023-05-24T04:08:35;99832.56;;;19.83;56.06
56241;BME280;42155;53.096;23.226;2023-05-24T04:10:35;99838.03;;;19.61;56.32
56241;BME280;42155;53.096;23.226;2023-05-24T04:12:36;99841.25;;;19.56;56.14
56241;BME280;42155;53.096;23.226;2023-05-24T04:14:36;99845.91;;;19.62;56.11
56241;BME280;42155;53.096;23.226;2023-05-24T04:16:36;99842.56;;;20.04;55.87
56241;BME280;42155;53.096;23.226;2023-05-24T04:18:37;99834.47;;;20.98;53.62
56241;BME280;42155;53.096;23.226;2023-05-24T04:20:37;99829.06;;;21.76;51.54
56241;BME280;42155;53.096;23.226;2023-05-24T04:22:38;99819.94;;;22.99;48.53
56241;BME280;42155;53.096;23.226;2023-05-24T04:24:38;99819.47;;;24.72;44.79
56241;BME280;42155;53.096;23.226;2023-05-24T04:26:39;99823.34;;;26.01;42.83
56241;BME280;42155;53.096;23.226;2023-05-24T04:28:39;99824.53;;;26.83;40.51
56241;BME280;42155;53.096;23.226;2023-05-24T04:30:39;99828.56;;;27.81;38.15
56241;BME280;42155;53.096;23.226;2023-05-24T04:32:40;99810.97;;;28.86;37.02
56241;BME280;42155;53.096;23.226;2023-05-24T04:34:40;99829.44;;;30.02;35.18
56241;BME280;42155;53.096;23.226;2023-05-24T04:36:40;99820.50;;;30.29;34.37
56241;BME280;42155;53.096;23.226;2023-05-24T04:38:41;99829.38;;;30.68;33.79
56241;BME280;42155;53.096;23.226;2023-05-24T04:40:41;99837.81;;;30.83;33.65
56241;BME280;42155;53.096;23.226;2023-05-24T04:42:41;99835.59;;;31.12;32.00
56241;BME280;42155;53.096;23.226;2023-05-24T04:44:42;99835.13;;;31.58;31.33
56241;BME280;42155;53.096;23.226;2023-05-24T04:46:42;99844.50;;;32.19;30.64
56241;BME280;42155;53.096;23.226;2023-05-24T04:48:42;99842.22;;;32.79;29.62
56241;BME280;42155;53.096;23.226;2023-05-24T04:50:43;99835.69;;;33.06;29.37
56241;BME280;42155;53.096;23.226;2023-05-24T04:52:43;99847.19;;;32.82;29.20
56241;BME280;42155;53.096;23.226;2023-05-24T04:54:43;99803.84;;;31.59;30.22
56241;BME280;42155;53.096;23.226;2023-05-24T04:56:44;99846.25;;;31.09;31.38
56241;BME280;42155;53.096;23.226;2023-05-24T04:58:44;99847.22;;;30.71;31.68
56241;BME280;42155;53.096;23.226;2023-05-24T05:00:44;99851.44;;;29.68;32.85
56241;BME280;42155;53.096;23.226;2023-05-24T05:02:45;99845.50;;;28.92;33.17
56241;BME280;42155;53.096;23.226;2023-05-24T05:04:45;99842.53;;;27.97;34.59
56241;BME280;42155;53.096;23.226;2023-05-24T05:06:46;99864.00;;;27.81;34.86
56241;BME280;42155;53.096;23.226;2023-05-24T05:08:46;99860.81;;;27.84;35.25
56241;BME280;42155;53.096;23.226;2023-05-24T05:10:46;99844.31;;;27.91;35.18
56241;BME280;42155;53.096;23.226;2023-05-24T05:12:47;99817.78;;;27.75;34.62
56241;BME280;42155;53.096;23.226;2023-05-24T05:14:47;99864.00;;;27.93;35.01
56241;BME280;42155;53.096;23.226;2023-05-24T05:16:47;99857.00;;;27.85;35.10
56241;BME280;42155;53.096;23.226;2023-05-24T05:18:47;99860.66;;;27.67;35.06
56241;BME280;42155;53.096;23.226;2023-05-24T05:20:48;99873.63;;;27.72;35.35
56241;BME280;42155;53.096;23.226;2023-05-24T05:22:48;99863.50;;;27.96;35.22
56241;BME280;42155;53.096;23.226;2023-05-24T05:24:49;99811.09;;;27.94;34.86
56241;BME280;42155;53.096;23.226;2023-05-24T05:26:49;99863.47;;;28.60;33.15
56241;BME280;42155;53.096;23.226;2023-05-24T05:28:49;99866.16;;;28.72;33.19
56241;BME280;42155;53.096;23.226;2023-05-24T05:30:49;99869.13;;;28.70;33.39
56241;BME280;42155;53.096;23.226;2023-05-24T05:32:50;99862.19;;;28.62;33.48
56241;BME280;42155;53.096;23.226;2023-05-24T05:34:50;99810.91;;;28.24;33.61
56241;BME280;42155;53.096;23.226;2023-05-24T05:36:50;99865.25;;;28.66;33.43
56241;BME280;42155;53.096;23.226;2023-05-24T05:38:51;99860.19;;;28.75;33.73
56241;BME280;42155;53.096;23.226;2023-05-24T05:40:51;99858.09;;;28.93;33.28
56241;BME280;42155;53.096;23.226;2023-05-24T05:42:51;99871.78;;;28.93;33.63
56241;BME280;42155;53.096;23.226;2023-05-24T05:44:52;99874.38;;;29.00;34.00
56241;BME280;42155;53.096;23.226;2023-05-24T05:46:52;99881.13;;;28.98;33.60
56241;BME280;42155;53.096;23.226;2023-05-24T05:48:53;99873.63;;;29.05;33.19
56241;BME280;42155;53.096;23.226;2023-05-24T05:50:53;99884.16;;;29.13;33.02
56241;BME280;42155;53.096;23.226;2023-05-24T05:52:53;99880.59;;;29.29;33.15
56241;BME280;42155;53.096;23.226;2023-05-24T05:54:54;99863.03;;;29.25;32.77
56241;BME280;42155;53.096;23.226;2023-05-24T05:56:54;99875.88;;;29.41;32.32
56241;BME280;42155;53.096;23.226;2023-05-24T05:58:54;99884.34;;;29.57;32.17
56241;BME280;42155;53.096;23.226;2023-05-24T06:00:55;99883.44;;;29.68;32.23
56241;BME280;42155;53.096;23.226;2023-05-24T06:02:55;99885.16;;;29.74;31.81
56241;BME280;42155;53.096;23.226;2023-05-24T06:04:55;99887.63;;;29.76;32.82
56241;BME280;42155;53.096;23.226;2023-05-24T06:06:56;99891.63;;;29.68;32.73
56241;BME280;42155;53.096;23.226;2023-05-24T06:08:56;99882.69;;;29.56;31.93
56241;BME280;42155;53.096;23.226;2023-05-24T06:10:56;99890.28;;;29.54;31.93
56241;BME280;42155;53.096;23.226;2023-05-24T06:12:57;99886.41;;;29.50;31.61
56241;BME280;42155;53.096;23.226;2023-05-24T06:14:57;99894.25;;;29.29;32.28
56241;BME280;42155;53.096;23.226;2023-05-24T06:16:57;99875.34;;;29.11;32.77
56241;BME280;42155;53.096;23.226;2023-05-24T06:18:58;99900.81;;;29.28;32.90
56241;BME280;42155;53.096;23.226;2023-05-24T06:20:58;99898.31;;;29.43;32.98
56241;BME280;42155;53.096;23.226;2023-05-24T06:22:58;99900.25;;;29.60;33.25
56241;BME280;42155;53.096;23.226;2023-05-24T06:24:58;99896.25;;;29.51;32.02
56241;BME280;42155;53.096;23.226;2023-05-24T06:26:59;99903.22;;;29.41;32.07
56241;BME280;42155;53.096;23.226;2023-05-24T06:28:59;99902.63;;;29.39;32.87
56241;BME280;42155;53.096;23.226;2023-05-24T06:30:59;99897.25;;;29.45;32.74
56241;BME280;42155;53.096;23.226;2023-05-24T06:33:00;99883.41;;;29.34;32.37
56241;BME280;42155;53.096;23.226;2023-05-24T06:35:00;99903.22;;;29.41;32.33
56241;BME280;42155;53.096;23.226;2023-05-24T06:37:00;99886.47;;;29.21;32.16
56241;BME280;42155;53.096;23.226;2023-05-24T06:39:01;99910.97;;;29.16;32.75
56241;BME280;42155;53.096;23.226;2023-05-24T06:41:01;99909.50;;;29.25;33.18
56241;BME280;42155;53.096;23.226;2023-05-24T06:43:03;99910.81;;;29.39;32.80
56241;BME280;42155;53.096;23.226;2023-05-24T06:45:03;99913.00;;;29.37;32.26
56241;BME280;42155;53.096;23.226;2023-05-24T06:47:04;99919.00;;;29.06;32.86
56241;BME280;42155;53.096;23.226;2023-05-24T06:49:04;99909.88;;;29.00;33.50
56241;BME280;42155;53.096;23.226;2023-05-24T06:51:05;99914.13;;;29.08;32.71
56241;BME280;42155;53.096;23.226;2023-05-24T06:53:05;99909.25;;;28.70;33.94
56241;BME280;42155;53.096;23.226;2023-05-24T06:55:06;99921.47;;;28.79;33.37
56241;BME280;42155;53.096;23.226;2023-05-24T06:57:06;99894.50;;;28.82;33.60
56241;BME280;42155;53.096;23.226;2023-05-24T06:59:06;99915.78;;;29.09;32.97
56241;BME280;42155;53.096;23.226;2023-05-24T07:01:07;99925.72;;;29.15;32.66
56241;BME280;42155;53.096;23.226;2023-05-24T07:03:08;99892.50;;;29.06;32.79
56241;BME280;42155;53.096;23.226;2023-05-24T07:05:08;99904.09;;;29.30;33.08
56241;BME280;42155;53.096;23.226;2023-05-24T07:07:09;99877.63;;;28.85;33.14
56241;BME280;42155;53.096;23.226;2023-05-24T07:09:09;99918.22;;;28.93;33.41
56241;BME280;42155;53.096;23.226;2023-05-24T07:11:09;99910.78;;;29.06;34.28
56241;BME280;42155;53.096;23.226;2023-05-24T07:13:10;99910.31;;;29.09;33.65
56241;BME280;42155;53.096;23.226;2023-05-24T07:15:10;99914.94;;;29.08;33.72
56241;BME280;42155;53.096;23.226;2023-05-24T07:17:10;99921.69;;;29.17;33.98
56241;BME280;42155;53.096;23.226;2023-05-24T07:19:11;99928.47;;;29.32;33.60
56241;BME280;42155;53.096;23.226;2023-05-24T07:21:11;99915.19;;;29.07;33.23
56241;BME280;42155;53.096;23.226;2023-05-24T07:23:11;99923.38;;;29.07;33.35
56241;BME280;42155;53.096;23.226;2023-05-24T07:25:12;99921.97;;;29.04;32.42
56241;BME280;42155;53.096;23.226;2023-05-24T07:27:12;99924.94;;;28.74;32.64
56241;BME280;42155;53.096;23.226;2023-05-24T07:29:12;99928.78;;;28.61;33.19
56241;BME280;42155;53.096;23.226;2023-05-24T07:31:13;99934.91;;;28.80;33.37
56241;BME280;42155;53.096;23.226;2023-05-24T07:33:13;99927.09;;;29.01;34.04
56241;BME280;42155;53.096;23.226;2023-05-24T07:35:13;99928.94;;;29.12;33.11
56241;BME280;42155;53.096;23.226;2023-05-24T07:37:14;99933.34;;;29.13;32.52
56241;BME280;42155;53.096;23.226;2023-05-24T07:39:15;99899.44;;;28.97;32.05
56241;BME280;42155;53.096;23.226;2023-05-24T07:41:15;99938.28;;;28.99;32.68
56241;BME280;42155;53.096;23.226;2023-05-24T07:43:15;99931.78;;;28.48;33.29
56241;BME280;42155;53.096;23.226;2023-05-24T07:45:16;99931.94;;;28.18;33.56
56241;BME280;42155;53.096;23.226;2023-05-24T07:47:16;99921.50;;;28.15;33.56
56241;BME280;42155;53.096;23.226;2023-05-24T07:49:16;99912.47;;;28.14;32.92
56241;BME280;42155;53.096;23.226;2023-05-24T07:51:17;99890.47;;;27.92;32.61
56241;BME280;42155;53.096;23.226;2023-05-24T07:53:18;99898.41;;;27.94;32.92
56241;BME280;42155;53.096;23.226;2023-05-24T07:55:18;99933.13;;;28.22;32.66
56241;BME280;42155;53.096;23.226;2023-05-24T07:57:19;99924.09;;;28.33;32.22
56241;BME280;42155;53.096;23.226;2023-05-24T07:59:19;99935.72;;;28.40;31.64
56241;BME280;42155;53.096;23.226;2023-05-24T08:01:19;99938.81;;;28.44;31.27
56241;BME280;42155;53.096;23.226;2023-05-24T08:03:20;99900.81;;;28.31;31.74
56241;BME280;42155;53.096;23.226;2023-05-24T08:05:20;99921.81;;;28.42;31.12
56241;BME280;42155;53.096;23.226;2023-05-24T08:07:20;99937.56;;;28.52;31.88
56241;BME280;42155;53.096;23.226;2023-05-24T08:09:21;99935.13;;;28.27;31.39
56241;BME280;42155;53.096;23.226;2023-05-24T08:11:21;99939.53;;;28.16;33.44
56241;BME280;42155;53.096;23.226;2023-05-24T08:13:22;99948.88;;;28.32;32.31
56241;BME280;42155;53.096;23.226;2023-05-24T08:15:22;99938.69;;;28.39;31.56
56241;BME280;42155;53.096;23.226;2023-05-24T08:17:22;99925.28;;;28.37;31.26
56241;BME280;42155;53.096;23.226;2023-05-24T08:19:23;99944.31;;;28.61;31.26
56241;BME280;42155;53.096;23.226;2023-05-24T08:21:23;99949.91;;;28.66;31.00
56241;BME280;42155;53.096;23.226;2023-05-24T08:23:23;99880.19;;;28.23;31.21
56241;BME280;42155;53.096;23.226;2023-05-24T08:25:24;99951.31;;;28.68;31.33
56241;BME280;42155;53.096;23.226;2023-05-24T08:27:24;99942.38;;;28.73;30.35
56241;BME280;42155;53.096;23.226;2023-05-24T08:29:24;99947.81;;;28.85;30.88
56241;BME280;42155;53.096;23.226;2023-05-24T08:31:25;99948.25;;;28.93;30.87
56241;BME280;42155;53.096;23.226;2023-05-24T08:33:25;99947.06;;;29.01;29.91
56241;BME280;42155;53.096;23.226;2023-05-24T08:35:25;99945.91;;;28.85;29.29
56241;BME280;42155;53.096;23.226;2023-05-24T08:37:26;99950.41;;;28.91;30.56
56241;BME280;42155;53.096;23.226;2023-05-24T08:39:26;99956.16;;;29.07;31.00
56241;BME280;42155;53.096;23.226;2023-05-24T08:41:27;99917.13;;;28.95;30.56
56241;BME280;42155;53.096;23.226;2023-05-24T08:43:28;99929.09;;;29.05;29.39
56241;BME280;42155;53.096;23.226;2023-05-24T08:45:29;99948.56;;;29.09;28.82
56241;BME280;42155;53.096;23.226;2023-05-24T08:47:31;99939.28;;;29.10;29.54
56241;BME280;42155;53.096;23.226;2023-05-24T08:49:31;99942.13;;;29.15;28.71
56241;BME280;42155;53.096;23.226;2023-05-24T08:51:32;99949.66;;;29.08;29.07
56241;BME280;42155;53.096;23.226;2023-05-24T08:53:36;99941.59;;;29.01;28.83
56241;BME280;42155;53.096;23.226;2023-05-24T08:55:38;99939.84;;;28.83;29.02
56241;BME280;42155;53.096;23.226;2023-05-24T08:57:38;99913.25;;;28.50;29.40
56241;BME280;42155;53.096;23.226;2023-05-24T08:59:40;99941.00;;;28.71;28.88
56241;BME280;42155;53.096;23.226;2023-05-24T09:01:41;99937.91;;;28.67;29.52
56241;BME280;42155;53.096;23.226;2023-05-24T09:03:42;99939.66;;;28.73;29.44
56241;BME280;42155;53.096;23.226;2023-05-24T09:05:44;99935.91;;;28.91;29.29
56241;BME280;42155;53.096;23.226;2023-05-24T09:07:45;99924.50;;;28.94;28.52
56241;BME280;42155;53.096;23.226;2023-05-24T09:09:49;99937.47;;;28.87;28.41
56241;BME280;42155;53.096;23.226;2023-05-24T09:11:52;99935.84;;;28.74;28.57
56241;BME280;42155;53.096;23.226;2023-05-24T09:13:55;99891.72;;;28.25;29.50
56241;BME280;42155;53.096;23.226;2023-05-24T09:15:58;99941.22;;;28.69;29.64
56241;BME280;42155;53.096;23.226;2023-05-24T09:17:58;99939.53;;;28.80;28.67
56241;BME280;42155;53.096;23.226;2023-05-24T09:19:59;99913.63;;;28.42;28.32
56241;BME280;42155;53.096;23.226;2023-05-24T09:21:59;99948.69;;;28.74;27.94
56241;BME280;42155;53.096;23.226;2023-05-24T09:24:00;99919.88;;;28.66;28.76
56241;BME280;42155;53.096;23.226;2023-05-24T09:26:08;99947.09;;;28.89;29.12
56241;BME280;42155;53.096;23.226;2023-05-24T09:28:12;99958.81;;;29.02;28.54
56241;BME280;42155;53.096;23.226;2023-05-24T09:30:13;99944.66;;;29.05;27.60
56241;BME280;42155;53.096;23.226;2023-05-24T09:32:18;99945.25;;;29.07;27.54
56241;BME280;42155;53.096;23.226;2023-05-24T09:34:19;99920.00;;;28.88;28.81
56241;BME280;42155;53.096;23.226;2023-05-24T09:36:19;99952.47;;;29.13;28.56
56241;BME280;42155;53.096;23.226;2023-05-24T09:38:20;99965.16;;;29.19;28.33
56241;BME280;42155;53.096;23.226;2023-05-24T09:40:20;99957.44;;;29.16;27.48
56241;BME280;42155;53.096;23.226;2023-05-24T09:42:22;99920.72;;;28.83;27.92
56241;BME280;42155;53.096;23.226;2023-05-24T09:44:25;99964.88;;;29.04;27.95
56241;BME280;42155;53.096;23.226;2023-05-24T09:46:26;99957.84;;;29.08;28.64
56241;BME280;42155;53.096;23.226;2023-05-24T09:48:26;99955.97;;;29.25;28.03
56241;BME280;42155;53.096;23.226;2023-05-24T09:50:27;99958.69;;;29.25;28.63
56241;BME280;42155;53.096;23.226;2023-05-24T09:52:27;99961.50;;;29.30;27.71
56241;BME280;42155;53.096;23.226;2023-05-24T09:54:28;99959.28;;;29.27;27.17
56241;BME280;42155;53.096;23.226;2023-05-24T09:56:32;99965.84;;;29.26;27.69
56241;BME280;42155;53.096;23.226;2023-05-24T09:58:33;99962.03;;;29.27;27.91
56241;BME280;42155;53.096;23.226;2023-05-24T10:00:40;99954.38;;;29.29;26.97
56241;BME280;42155;53.096;23.226;2023-05-24T10:02:44;99959.19;;;29.39;27.07
56241;BME280;42155;53.096;23.226;2023-05-24T10:04:44;99956.25;;;29.40;26.42
56241;BME280;42155;53.096;23.226;2023-05-24T10:06:45;99956.66;;;29.49;27.38
56241;BME280;42155;53.096;23.226;2023-05-24T10:08:47;99944.88;;;29.49;26.65
56241;BME280;42155;53.096;23.226;2023-05-24T10:10:47;99888.44;;;29.09;26.83
56241;BME280;42155;53.096;23.226;2023-05-24T10:12:48;99959.38;;;29.32;26.17
56241;BME280;42155;53.096;23.226;2023-05-24T10:14:49;99954.53;;;29.06;27.01
56241;BME280;42155;53.096;23.226;2023-05-24T10:16:50;99960.41;;;29.14;26.17
56241;BME280;42155;53.096;23.226;2023-05-24T10:18:51;99958.69;;;29.25;27.12
56241;BME280;42155;53.096;23.226;2023-05-24T10:20:53;99968.22;;;29.39;26.68
56241;BME280;42155;53.096;23.226;2023-05-24T10:22:58;99958.16;;;29.40;26.19
56241;BME280;42155;53.096;23.226;2023-05-24T10:24:59;99960.53;;;29.36;26.13
56241;BME280;42155;53.096;23.226;2023-05-24T10:27:03;99959.19;;;29.22;26.00
56241;BME280;42155;53.096;23.226;2023-05-24T10:29:07;99963.88;;;29.10;26.61
56241;BME280;42155;53.096;23.226;2023-05-24T10:31:15;99963.88;;;29.10;27.17
56241;BME280;42155;53.096;23.226;2023-05-24T10:33:17;99967.88;;;28.90;27.09
56241;BME280;42155;53.096;23.226;2023-05-24T10:35:20;99956.53;;;28.70;26.76
56241;BME280;42155;53.096;23.226;2023-05-24T10:37:21;99976.25;;;28.60;27.73
56241;BME280;42155;53.096;23.226;2023-05-24T10:39:24;99970.06;;;28.65;27.96
56241;BME280;42155;53.096;23.226;2023-05-24T10:41:25;99979.22;;;28.71;27.14
56241;BME280;42155;53.096;23.226;2023-05-24T10:43:25;99955.56;;;28.76;27.24
56241;BME280;42155;53.096;23.226;2023-05-24T10:47:26;99967.16;;;28.95;27.39
56241;BME280;42155;53.096;23.226;2023-05-24T10:49:27;99967.19;;;29.12;27.40
56241;BME280;42155;53.096;23.226;2023-05-24T10:51:36;99964.97;;;29.26;27.48